Time;durP1;ratioP1;P1;durP2;ratioP2;P2;SDS_P1;SDS_P2;PMS_P1;PMS_P2;Temp;Humidity;BMP_temperature;BMP_pressure;BME280_temperature;BME280_humidity;BME280_pressure;Samples;Min_cycle;Max_cycle;Signal;HPM_P1;HPM_P2
2021/08/16 00:00:32;;;;;;;10.68;7.10;;;;;;;19.78;61.25;99580.50;2115926;83;28648;-69
2021/08/16 00:03:36;;;;;;;10.25;6.95;;;;;;;19.74;61.26;99581.31;2096251;83;27715;-68
2021/08/16 00:06:38;;;;;;;12.30;7.60;;;;;;;19.72;61.20;99580.61;2096563;84;32956;-68
2021/08/16 00:09:39;;;;;;;9.55;7.35;;;;;;;19.71;61.33;99584.83;2108605;83;29330;-67
2021/08/16 00:12:41;;;;;;;17.42;6.47;;;;;;;19.68;61.34;99568.85;2099972;83;27677;-68
2021/08/16 00:15:43;;;;;;;9.90;6.83;;;;;;;19.66;61.43;99556.76;2103945;82;28703;-68
2021/08/16 00:18:47;;;;;;;10.55;8.15;;;;;;;19.66;61.66;99555.92;2151448;82;31204;-69
2021/08/16 00:21:48;;;;;;;10.90;7.75;;;;;;;19.64;61.91;99551.14;2151819;82;33013;-69
2021/08/16 00:24:51;;;;;;;15.90;7.47;;;;;;;19.62;61.89;99545.00;2151518;81;29422;-68
2021/08/16 00:27:52;;;;;;;15.85;7.08;;;;;;;19.62;61.90;99545.84;2116525;82;27698;-67
2021/08/16 00:30:54;;;;;;;9.30;7.30;;;;;;;19.60;61.98;99543.81;2108192;83;30159;-68
2021/08/16 00:33:56;;;;;;;12.60;7.45;;;;;;;19.58;62.13;99541.22;2108454;84;31851;-67
2021/08/16 00:36:59;;;;;;;10.38;7.55;;;;;;;19.58;62.27;99539.03;2129567;82;33144;-69
2021/08/16 00:40:00;;;;;;;10.32;7.80;;;;;;;19.56;62.08;99539.68;2119039;82;29558;-68
2021/08/16 00:43:02;;;;;;;11.73;7.97;;;;;;;19.54;62.27;99541.17;2108686;84;27686;-69
2021/08/16 00:46:05;;;;;;;9.95;7.45;;;;;;;19.52;62.38;99538.27;2113851;82;28660;-68
2021/08/16 00:49:07;;;;;;;8.40;6.78;;;;;;;19.51;62.38;99539.27;2151281;82;31084;-67
2021/08/16 00:52:09;;;;;;;10.88;6.85;;;;;;;19.48;62.46;99526.86;2151569;82;33010;-70
2021/08/16 00:55:13;;;;;;;9.15;6.87;;;;;;;19.46;62.56;99526.64;2151609;82;30088;-68
2021/08/16 00:58:15;;;;;;;10.77;8.27;;;;;;;19.40;62.81;99526.76;2113145;82;27724;-69
2021/08/16 01:01:16;;;;;;;12.63;8.13;;;;;;;19.33;62.96;99528.39;2123846;83;28634;-69
2021/08/16 01:04:18;;;;;;;12.10;8.03;;;;;;;19.26;62.86;99531.70;2144466;82;31206;-69
2021/08/16 01:07:20;;;;;;;11.03;7.40;;;;;;;19.21;62.93;99528.58;2147518;81;33704;-69
2021/08/16 01:10:22;;;;;;;12.85;7.53;;;;;;;19.15;63.03;99522.41;2151224;82;29358;-69
2021/08/16 01:13:24;;;;;;;9.83;8.23;;;;;;;19.09;63.05;99514.38;2151530;82;27701;-69
2021/08/16 01:16:26;;;;;;;11.90;7.70;;;;;;;19.00;63.19;99512.55;2123403;82;28692;-69
2021/08/16 01:19:28;;;;;;;11.12;8.13;;;;;;;18.93;63.50;99511.42;2057612;86;31927;-69
2021/08/16 01:22:30;;;;;;;19.95;8.23;;;;;;;18.85;63.68;99509.94;2057591;86;34066;-70
2021/08/16 01:25:33;;;;;;;9.80;8.30;;;;;;;18.78;63.74;99509.17;2057685;85;29335;-70
2021/08/16 01:28:34;;;;;;;11.22;8.10;;;;;;;18.72;63.94;99496.70;2091357;85;27817;-70
2021/08/16 01:31:36;;;;;;;11.50;8.30;;;;;;;18.67;64.08;99498.52;2092286;85;28705;-70
2021/08/16 01:34:38;;;;;;;17.77;8.43;;;;;;;18.59;64.08;99504.68;2092475;85;31094;-69
2021/08/16 01:37:42;;;;;;;9.18;7.15;;;;;;;18.55;64.34;99505.97;2069561;84;33683;-69
2021/08/16 01:40:45;;;;;;;9.93;7.78;;;;;;;18.50;64.50;99516.43;2057880;85;29419;-68
2021/08/16 01:43:46;;;;;;;10.70;7.75;;;;;;;18.44;64.52;99515.65;2057957;84;27720;-68
2021/08/16 01:46:50;;;;;;;12.65;8.08;;;;;;;18.38;64.87;99515.22;2069885;85;29477;-67
2021/08/16 01:49:52;;;;;;;14.07;9.20;;;;;;;18.34;64.79;99512.47;2092517;83;31856;-68
2021/08/16 01:52:54;;;;;;;13.78;8.50;;;;;;;18.31;65.13;99511.41;2089982;85;33609;-67
2021/08/16 01:55:56;;;;;;;13.80;8.18;;;;;;;18.28;65.14;99509.49;2090552;85;30477;-68
2021/08/16 01:58:58;;;;;;;13.32;8.53;;;;;;;18.24;65.46;99504.00;2058077;86;27741;-68
2021/08/16 02:02:00;;;;;;;13.30;9.35;;;;;;;18.19;65.48;99487.66;2057782;86;29848;-68
2021/08/16 02:05:02;;;;;;;13.60;9.00;;;;;;;18.19;65.64;99495.80;2078722;85;32372;-68
2021/08/16 02:08:04;;;;;;;15.13;8.90;;;;;;;18.17;66.05;99484.23;2092220;84;33784;-67
2021/08/16 02:11:06;;;;;;;14.73;8.95;;;;;;;18.16;66.13;99492.53;2092331;85;29332;-69
2021/08/16 02:14:08;;;;;;;15.75;7.75;;;;;;;18.15;66.29;99478.10;2082251;84;27695;-69
2021/08/16 02:17:10;;;;;;;15.43;8.45;;;;;;;18.14;66.33;99479.61;2080521;84;28891;-68
2021/08/16 02:20:12;;;;;;;11.68;8.18;;;;;;;18.14;66.49;99476.91;2108573;84;32151;-69
2021/08/16 02:23:14;;;;;;;10.32;7.95;;;;;;;18.12;66.55;99470.25;2108575;84;32996;-68
2021/08/16 02:26:17;;;;;;;16.17;8.23;;;;;;;18.10;66.63;99472.28;2150345;82;29337;-67
2021/08/16 02:29:19;;;;;;;13.38;8.15;;;;;;;18.08;66.71;99466.15;2151988;82;27704;-68
2021/08/16 02:32:21;;;;;;;11.73;9.20;;;;;;;18.05;66.75;99456.44;2151652;82;29522;-67
2021/08/16 02:35:23;;;;;;;14.05;7.67;;;;;;;18.04;66.90;99454.72;2122094;82;32096;-69
2021/08/16 02:38:25;;;;;;;16.15;8.75;;;;;;;18.03;67.32;99457.11;2108659;84;33741;-67
2021/08/16 02:41:27;;;;;;;12.50;7.90;;;;;;;18.00;67.00;99452.45;2108374;84;30198;-66
2021/08/16 02:44:29;;;;;;;13.48;8.53;;;;;;;17.98;66.99;99447.67;2124448;82;27751;-67
2021/08/16 02:47:31;;;;;;;15.43;8.35;;;;;;;17.95;67.20;99453.38;2151532;82;29521;-67
2021/08/16 02:50:33;;;;;;;14.95;8.68;;;;;;;17.91;67.29;99447.37;2151534;82;31256;-68
2021/08/16 02:53:35;;;;;;;12.68;8.70;;;;;;;17.88;67.38;99443.59;2148616;82;33389;-67
2021/08/16 02:56:37;;;;;;;10.13;8.28;;;;;;;17.84;67.23;99435.42;2108696;84;29966;-66
2021/08/16 02:59:39;;;;;;;12.80;8.88;;;;;;;17.66;67.27;99414.48;2108777;83;27727;-66
2021/08/16 03:02:43;;;;;;;13.93;8.38;;;;;;;17.66;67.27;99414.48;2108684;84;28645;-67
2021/08/16 03:05:45;;;;;;;10.40;8.03;;;;;;;17.75;67.45;99433.91;2141777;82;32110;-66
2021/08/16 03:08:47;;;;;;;11.53;8.90;;;;;;;17.73;67.60;99431.84;2151562;82;32679;-67
2021/08/16 03:11:49;;;;;;;13.48;9.68;;;;;;;17.69;67.84;99430.45;2151611;82;30440;-66
2021/08/16 03:14:50;;;;;;;18.15;10.58;;;;;;;17.65;68.07;99433.56;2132149;82;27737;-67
2021/08/16 03:17:53;;;;;;;13.88;9.28;;;;;;;17.63;68.42;99440.48;2108446;84;28862;-68
2021/08/16 03:20:55;;;;;;;12.15;8.98;;;;;;;17.64;68.49;99438.14;2108645;84;31054;-68
2021/08/16 03:23:57;;;;;;;12.50;9.03;;;;;;;17.66;68.53;99447.46;2114812;82;32992;-66
2021/08/16 03:27:00;;;;;;;14.05;8.98;;;;;;;17.66;68.53;99451.52;2151509;82;30060;-70
2021/08/16 03:30:06;;;;;;;12.35;8.25;;;;;;;17.52;68.57;99412.21;2151808;82;27655;-68
2021/08/16 03:33:08;;;;;;;12.98;8.85;;;;;;;17.52;68.57;99412.21;2151619;82;28637;-68
2021/08/16 03:36:10;;;;;;;13.78;8.35;;;;;;;17.64;68.79;99432.72;2114331;81;31033;-69
2021/08/16 03:39:12;;;;;;;12.20;9.30;;;;;;;17.65;69.07;99433.08;2108495;83;33117;-67
2021/08/16 03:42:15;;;;;;;13.15;8.88;;;;;;;17.65;69.07;99433.08;2107660;84;29468;-69
2021/08/16 03:45:20;;;;;;;17.12;9.75;;;;;;;17.66;69.06;99434.79;2113283;82;27655;-68
2021/08/16 03:48:21;;;;;;;;;;;;;;;17.67;69.05;99433.80;2110687;84;28746;-68
2021/08/16 03:51:23;;;;;;;11.63;9.08;;;;;;;17.68;69.21;99431.92;2107980;84;31838;-68
2021/08/16 03:54:25;;;;;;;13.30;9.05;;;;;;;17.66;69.20;99431.21;2119395;82;32443;-66
2021/08/16 03:57:27;;;;;;;12.10;9.20;;;;;;;17.67;69.28;99427.50;2134130;82;29950;-66
2021/08/16 04:00:29;;;;;;;15.35;9.58;;;;;;;17.69;69.30;99426.38;2108597;84;27731;-69
2021/08/16 04:03:30;;;;;;;13.03;9.05;;;;;;;17.69;69.30;99426.38;2108620;84;29647;-69
2021/08/16 04:06:33;;;;;;;13.62;9.20;;;;;;;17.68;69.38;99414.31;2149240;82;31036;-68
2021/08/16 04:09:34;;;;;;;14.98;8.65;;;;;;;17.77;69.43;99411.60;2116768;82;32968;-65
2021/08/16 04:12:36;;;;;;;12.58;8.60;;;;;;;17.81;69.64;99407.25;2108778;82;30081;-68
2021/08/16 04:15:39;;;;;;;13.40;9.30;;;;;;;17.86;69.43;99410.39;2135368;82;27674;-68
2021/08/16 04:18:41;;;;;;;13.48;9.53;;;;;;;17.92;69.54;99417.92;2144527;82;29402;-68
2021/08/16 04:21:43;;;;;;;13.58;9.05;;;;;;;17.98;69.59;99403.83;2141830;83;32021;-67
2021/08/16 04:24:45;;;;;;;12.58;8.63;;;;;;;18.05;69.62;99409.52;2127423;83;32970;-68
2021/08/16 04:27:49;;;;;;;10.18;7.85;;;;;;;18.12;69.57;99411.97;2096384;84;29942;-66
2021/08/16 04:30:51;;;;;;;16.73;8.58;;;;;;;18.18;69.53;99406.49;2096474;84;27631;-68
2021/08/16 04:33:54;;;;;;;12.70;9.20;;;;;;;18.27;69.57;99414.24;2122587;83;28763;-69
2021/08/16 04:36:56;;;;;;;11.63;8.55;;;;;;;18.45;69.77;99407.52;2141877;83;31478;-68
2021/08/16 04:39:58;;;;;;;10.68;7.60;;;;;;;18.45;69.77;99407.52;2141937;83;33608;-69
2021/08/16 04:43:00;;;;;;;14.98;9.55;;;;;;;18.55;69.52;99415.10;2129050;83;30206;-69
2021/08/16 04:46:02;;;;;;;14.75;8.93;;;;;;;18.66;69.50;99414.05;2096457;84;27706;-69
2021/08/16 04:49:04;;;;;;;12.90;8.98;;;;;;;18.76;69.44;99421.66;2096370;84;29337;-66
2021/08/16 04:52:07;;;;;;;14.00;9.75;;;;;;;18.88;69.29;99422.80;2096355;83;31029;-69
2021/08/16 04:55:10;;;;;;;17.77;9.40;;;;;;;18.98;69.25;99432.63;2140554;83;33212;-70
2021/08/16 04:58:12;;;;;;;13.60;8.88;;;;;;;19.10;69.15;99434.64;2141880;83;29912;-69
2021/08/16 05:01:14;;;;;;;17.82;8.70;;;;;;;19.21;69.08;99430.83;2141935;83;28223;-67
2021/08/16 05:04:16;;;;;;;19.12;9.63;;;;;;;19.36;68.79;99436.59;2111338;83;29618;-70
2021/08/16 05:07:19;;;;;;;16.52;8.30;;;;;;;19.52;68.67;99442.70;2096420;84;31729;-69
2021/08/16 05:10:24;;;;;;;15.68;8.25;;;;;;;19.66;68.58;99445.34;2096238;83;33248;-71
2021/08/16 05:13:28;;;;;;;12.03;8.43;;;;;;;19.85;68.43;99451.63;2114314;83;30125;-68
2021/08/16 05:16:30;;;;;;;15.08;8.43;;;;;;;20.02;68.24;99458.09;2141690;81;27522;-69
2021/08/16 05:19:37;;;;;;;15.03;8.43;;;;;;;20.17;68.11;99463.78;2141613;83;28636;-68
2021/08/16 05:22:41;;;;;;;15.28;8.85;;;;;;;20.34;67.92;99458.80;2137153;83;31057;-70
2021/08/16 05:25:49;;;;;;;19.95;8.05;;;;;;;20.54;67.60;99459.94;2096709;84;32406;-70
2021/08/16 05:28:52;;;;;;;29.25;8.63;;;;;;;20.76;67.33;99470.80;2096672;84;29372;-69
2021/08/16 05:31:55;;;;;;;27.25;9.68;;;;;;;21.04;66.96;99477.89;2074677;84;27671;-69
2021/08/16 05:34:58;;;;;;;29.42;9.55;;;;;;;21.47;66.85;99472.39;2096970;83;28798;-67
2021/08/16 05:38:00;;;;;;;16.87;8.65;;;;;;;21.82;65.95;99469.89;2096656;84;31096;-67
2021/08/16 05:41:02;;;;;;;20.10;8.05;;;;;;;22.12;65.79;99468.02;2096513;84;32967;-68
2021/08/16 05:44:04;;;;;;;12.55;8.30;;;;;;;22.39;65.23;99465.92;2121829;83;29914;-68
2021/08/16 05:47:06;;;;;;;13.88;6.90;;;;;;;22.71;64.81;99477.81;2142148;83;27693;-69
2021/08/16 05:50:10;;;;;;;13.93;7.10;;;;;;;23.01;64.48;99478.03;2141915;81;29311;-67
2021/08/16 05:53:12;;;;;;;12.40;7.85;;;;;;;23.28;64.09;99471.80;2130943;83;30991;-68
2021/08/16 05:56:14;;;;;;;19.37;7.15;;;;;;;23.47;63.44;99475.94;2096482;84;33856;-68
2021/08/16 05:59:15;;;;;;;12.20;7.05;;;;;;;23.61;63.16;99475.69;2096673;84;30121;-68
2021/08/16 06:02:18;;;;;;;7.37;6.62;;;;;;;23.76;62.77;99481.20;2096323;83;27671;-67
2021/08/16 06:05:20;;;;;;;10.10;6.95;;;;;;;23.94;62.42;99472.70;2139671;83;28661;-69
2021/08/16 06:08:21;;;;;;;9.53;6.67;;;;;;;24.10;61.94;99468.48;2141573;83;31255;-69
2021/08/16 06:11:23;;;;;;;14.83;7.30;;;;;;;24.31;61.76;99465.56;2141981;83;32971;-68
2021/08/16 06:14:27;;;;;;;18.65;7.25;;;;;;;24.61;61.61;99460.60;2112976;83;29322;-69
2021/08/16 06:17:29;;;;;;;15.00;6.80;;;;;;;25.01;61.00;99457.91;2094717;84;28102;-69
2021/08/16 06:20:31;;;;;;;13.68;7.30;;;;;;;25.30;60.47;99456.67;2071893;85;28817;-68
2021/08/16 06:23:34;;;;;;;14.58;7.35;;;;;;;25.52;60.17;99462.22;2082585;84;31064;-70
2021/08/16 06:26:36;;;;;;;8.88;6.60;;;;;;;25.74;59.77;99468.02;2103161;84;32943;-68
2021/08/16 06:29:38;;;;;;;12.20;6.80;;;;;;;25.98;59.01;99460.98;2086494;84;29353;-70
2021/08/16 06:32:40;;;;;;;9.28;6.20;;;;;;;26.22;58.56;99455.61;2072091;84;28243;-70
2021/08/16 06:35:42;;;;;;;14.00;6.53;;;;;;;26.49;58.11;99459.91;2104095;84;29303;-65
2021/08/16 06:38:46;;;;;;;10.90;5.97;;;;;;;26.70;57.40;99468.59;2104111;84;31978;-65
2021/08/16 06:41:52;;;;;;;10.70;6.85;;;;;;;26.99;57.10;99471.63;2068516;86;33970;-63
2021/08/16 06:44:54;;;;;;;10.18;6.25;;;;;;;27.40;56.69;99471.77;2079186;84;30176;-65
2021/08/16 06:47:56;;;;;;;8.23;5.92;;;;;;;27.84;55.65;99465.43;2071617;85;27617;-64
2021/08/16 06:51:00;;;;;;;13.45;7.30;;;;;;;28.39;55.24;99467.99;2071783;85;29636;-65
2021/08/16 06:54:02;;;;;;;11.10;6.92;;;;;;;29.04;53.78;99467.22;2086440;84;31189;-66
2021/08/16 06:57:04;;;;;;;10.10;6.47;;;;;;;29.66;53.33;99469.48;2068175;86;32999;-68
2021/08/16 07:00:08;;;;;;;14.10;7.42;;;;;;;30.33;52.62;99463.16;2104156;84;29546;-68
2021/08/16 07:03:10;;;;;;;10.05;6.50;;;;;;;30.98;51.19;99469.59;2099377;84;27745;-69
2021/08/16 07:06:12;;;;;;;14.10;6.05;;;;;;;31.61;49.67;99466.67;2071735;85;29448;-69
2021/08/16 07:09:14;;;;;;;8.98;5.80;;;;;;;32.15;49.10;99473.62;2071915;85;30997;-70
2021/08/16 07:12:16;;;;;;;10.18;5.62;;;;;;;32.68;48.21;99475.16;2071739;85;32780;-71
2021/08/16 07:15:18;;;;;;;10.20;6.05;;;;;;;33.27;46.98;99471.42;2099443;84;30520;-70
2021/08/16 07:18:19;;;;;;;10.50;5.92;;;;;;;33.66;46.07;99475.00;2113901;83;28196;-73
2021/08/16 07:21:24;;;;;;;11.48;5.90;;;;;;;33.98;45.29;99472.53;2141928;82;28695;-72
2021/08/16 07:24:26;;;;;;;11.22;5.50;;;;;;;34.19;44.44;99478.44;2115871;83;32377;-70
2021/08/16 07:27:28;;;;;;;13.60;5.53;;;;;;;34.46;44.01;99481.93;2096633;84;33047;-68
2021/08/16 07:30:30;;;;;;;8.43;5.35;;;;;;;34.83;42.30;99471.61;2096526;84;29350;-71
2021/08/16 07:33:32;;;;;;;11.05;5.83;;;;;;;35.23;42.21;99476.06;2107488;83;27745;-72
2021/08/16 07:36:34;;;;;;;9.10;5.78;;;;;;;35.69;40.54;99481.30;2141991;83;28881;-73
2021/08/16 07:39:36;;;;;;;17.10;5.33;;;;;;;36.08;40.21;99477.50;2141492;83;32281;-70
2021/08/16 07:42:40;;;;;;;8.88;5.33;;;;;;;36.49;39.57;99479.78;2141933;82;32956;-78
2021/08/16 07:45:42;;;;;;;5.42;4.28;;;;;;;36.91;38.06;99471.08;2097690;83;29332;-76
2021/08/16 07:48:44;;;;;;;9.13;5.35;;;;;;;37.27;37.56;99477.42;2123130;83;27664;-73
2021/08/16 07:51:46;;;;;;;8.33;5.20;;;;;;;37.44;35.62;99479.46;2097112;83;28633;-74
2021/08/16 07:54:48;;;;;;;10.40;5.35;;;;;;;37.46;35.22;99484.22;2141834;83;31825;-72
2021/08/16 07:57:49;;;;;;;7.35;4.72;;;;;;;37.65;34.65;99473.34;2141474;83;33842;-72
2021/08/16 08:00:51;;;;;;;6.37;4.30;;;;;;;37.82;34.25;99477.84;2141528;83;30285;-72
2021/08/16 08:03:53;;;;;;;10.20;4.70;;;;;;;38.08;33.64;99483.46;2109759;83;27665;-70
2021/08/16 08:06:55;;;;;;;5.40;4.58;;;;;;;38.22;33.02;99479.55;2096626;84;28823;-70
2021/08/16 08:09:56;;;;;;;8.83;5.08;;;;;;;38.36;32.62;99480.68;2134789;83;31273;-70
2021/08/16 08:12:58;;;;;;;10.10;4.92;;;;;;;38.54;32.08;99482.61;2125577;83;34087;-69
2021/08/16 08:16:00;;;;;;;24.57;5.08;;;;;;;38.74;32.02;99482.57;2101994;83;30512;-70
2021/08/16 08:19:02;;;;;;;8.63;4.75;;;;;;;38.84;31.14;99479.48;2141533;83;27652;-69
2021/08/16 08:22:04;;;;;;;7.90;4.90;;;;;;;38.93;30.59;99483.38;2141554;83;30860;-70
2021/08/16 08:25:07;;;;;;;5.00;4.22;;;;;;;38.93;29.72;99476.93;2110249;83;31059;-72
2021/08/16 08:28:12;;;;;;;7.03;4.95;;;;;;;38.89;29.54;99485.89;2096567;84;33156;-72
2021/08/16 08:31:14;;;;;;;10.75;4.10;;;;;;;38.86;28.86;99484.23;2096653;84;29331;-72
2021/08/16 08:34:16;;;;;;;9.05;4.80;;;;;;;38.82;28.91;99483.95;2114867;83;27829;-70
2021/08/16 08:37:18;;;;;;;9.43;3.60;;;;;;;38.89;28.79;99476.67;2141474;83;29902;-68
2021/08/16 08:40:20;;;;;;;12.82;4.37;;;;;;;38.83;28.60;99473.60;2141448;83;31820;-70
2021/08/16 08:43:23;;;;;;;6.60;3.97;;;;;;;38.44;27.68;99482.07;2136903;83;34308;-69
2021/08/16 08:46:24;;;;;;;7.92;4.15;;;;;;;38.21;27.50;99475.08;2096074;84;30389;-71
2021/08/16 08:49:27;;;;;;;7.62;3.67;;;;;;;38.00;27.64;99472.28;2096433;84;27914;-70
2021/08/16 08:52:29;;;;;;;3.43;3.13;;;;;;;37.89;27.30;99477.05;2096699;84;29758;-72
2021/08/16 08:55:39;;;;;;;6.15;3.80;;;;;;;37.72;27.23;99471.67;2132483;83;31063;-67
2021/08/16 08:58:42;;;;;;;4.55;3.27;;;;;;;37.49;27.16;99469.67;2141539;83;33671;-69
2021/08/16 09:01:55;;;;;;;6.10;3.50;;;;;;;37.40;27.61;99474.09;2141455;83;30169;-68
2021/08/16 09:04:59;;;;;;;5.78;3.62;;;;;;;37.37;27.19;99466.27;2121715;83;28116;-68
2021/08/16 09:08:01;;;;;;;5.37;3.80;;;;;;;37.13;27.14;99467.30;2141914;83;28696;-68
2021/08/16 09:11:09;;;;;;;5.72;3.62;;;;;;;36.91;27.51;99464.11;2141780;83;31436;-68
2021/08/16 09:14:11;;;;;;;8.83;3.52;;;;;;;36.70;27.48;99458.45;2126821;83;33756;-68
2021/08/16 09:17:13;;;;;;;5.87;3.80;;;;;;;36.48;27.81;99458.03;2095926;83;30525;-69
2021/08/16 09:20:25;;;;;;;5.95;3.55;;;;;;;36.42;27.99;99451.27;2104250;84;27743;-68
2021/08/16 09:23:28;;;;;;;3.50;3.02;;;;;;;36.35;27.42;99447.31;2111035;82;28704;-68
2021/08/16 09:26:34;;;;;;;5.05;3.62;;;;;;;36.27;28.01;99447.27;2151749;82;31390;-68
2021/08/16 09:29:48;;;;;;;5.85;3.42;;;;;;;36.29;28.38;99443.66;2150125;82;33023;-65
2021/08/16 09:32:50;;;;;;;;;;;;;;;36.35;28.36;99443.95;2153748;82;31379;-66
2021/08/16 09:35:58;;;;;;;6.85;3.45;;;;;;;36.28;28.04;99441.97;2114729;82;27722;-67
2021/08/16 09:38:59;;;;;;;3.87;3.17;;;;;;;36.10;27.47;99439.04;2144295;82;28673;-67
2021/08/16 09:42:04;;;;;;;5.55;3.50;;;;;;;35.88;28.19;99451.13;2151311;82;32244;-68
2021/08/16 09:45:07;;;;;;;8.73;6.40;;;;;;;35.77;28.14;99444.32;2127364;82;32972;-68
2021/08/16 09:48:14;;;;;;;9.05;3.15;;;;;;;35.62;28.33;99443.08;2108688;84;30144;-66
2021/08/16 09:51:23;;;;;;;4.35;2.95;;;;;;;35.40;27.96;99441.14;2106637;84;28359;-70
2021/08/16 09:54:25;;;;;;;5.50;3.30;;;;;;;35.11;27.83;99440.53;2116012;82;28659;-71
2021/08/16 09:57:27;;;;;;;4.92;3.60;;;;;;;34.85;28.21;99431.85;2122525;82;31235;-70
2021/08/16 10:00:30;;;;;;;3.85;3.17;;;;;;;34.66;28.12;99428.55;2108266;83;33168;-70
2021/08/16 10:03:32;;;;;;;5.50;2.33;;;;;;;34.37;27.75;99430.90;2103331;84;29335;-70
2021/08/16 10:06:34;;;;;;;5.17;3.42;;;;;;;34.16;28.88;99431.14;2101796;84;27544;-69
2021/08/16 10:09:36;;;;;;;5.60;3.17;;;;;;;34.05;28.75;99431.52;2101754;84;28658;-70
2021/08/16 10:12:38;;;;;;;4.53;3.22;;;;;;;33.93;28.76;99430.75;2105496;84;31253;-66
2021/08/16 10:15:43;;;;;;;5.30;3.35;;;;;;;33.79;29.28;99421.33;2106499;84;33339;-69
2021/08/16 10:18:50;;;;;;;6.20;3.10;;;;;;;33.77;29.04;99419.91;2104365;83;30020;-68
2021/08/16 10:22:03;;;;;;;3.95;3.02;;;;;;;33.77;29.56;99410.18;2069874;84;27694;-65
2021/08/16 10:25:13;;;;;;;5.42;2.70;;;;;;;33.77;29.54;99399.90;2071193;85;28685;-68
2021/08/16 10:28:33;;;;;;;6.22;2.70;;;;;;;33.79;29.56;99396.32;2071884;85;31033;-71
2021/08/16 10:31:38;;;;;;;3.52;2.60;;;;;;;33.77;29.82;99398.51;2071293;85;34172;-72
2021/08/16 10:34:43;;;;;;;7.90;3.72;;;;;;;33.84;29.68;99394.17;2070617;86;30101;-74
2021/08/16 10:37:45;;;;;;;9.58;3.62;;;;;;;33.87;29.93;99385.89;2070044;86;28147;-71
2021/08/16 10:40:53;;;;;;;4.25;3.27;;;;;;;33.86;29.69;99380.05;2070013;86;28688;-75
2021/08/16 10:43:57;;;;;;;8.48;4.40;;;;;;;33.73;29.71;99385.38;2071411;85;30973;-71
2021/08/16 10:47:01;;;;;;;7.12;3.80;;;;;;;33.60;30.09;99373.52;2071561;84;37383;-62
2021/08/16 10:50:21;;;;;;;3.30;3.00;;;;;;;33.58;30.22;99367.37;2071696;85;43757;-63
2021/08/16 10:53:23;;;;;;;4.47;3.45;;;;;;;33.56;30.10;99368.16;2070836;85;27589;-62
2021/08/16 10:56:26;;;;;;;5.20;3.50;;;;;;;33.41;29.82;99367.37;2069914;84;29929;-62
2021/08/16 10:59:31;;;;;;;3.33;3.02;;;;;;;33.38;30.18;99369.78;2070731;85;32263;-62
2021/08/16 11:02:33;;;;;;;8.63;3.55;;;;;;;33.34;30.21;99363.86;2071850;85;33763;-61
2021/08/16 11:05:38;;;;;;;9.20;3.25;;;;;;;33.18;30.30;99363.58;2072224;85;29412;-62
2021/08/16 11:08:41;;;;;;;6.25;3.55;;;;;;;33.02;30.95;99360.22;2065559;85;27722;-61
2021/08/16 11:11:48;;;;;;;3.65;3.08;;;;;;;32.94;30.56;99342.56;2059554;85;28787;-61
2021/08/16 11:14:51;;;;;;;5.20;2.45;;;;;;;32.83;30.81;99349.31;2056480;85;32102;-62
2021/08/16 11:17:53;;;;;;;3.77;2.95;;;;;;;32.80;31.38;99353.93;2071988;84;32967;-64
2021/08/16 11:21:06;;;;;;;7.35;3.50;;;;;;;32.79;30.88;99347.25;2071512;84;30189;-64
2021/08/16 11:24:07;;;;;;;5.17;3.80;;;;;;;32.80;31.16;99351.16;2071985;84;27582;-64
2021/08/16 11:27:13;;;;;;;4.10;3.65;;;;;;;32.75;31.33;99344.66;2059081;85;29149;-64
2021/08/16 11:30:15;;;;;;;4.33;3.00;;;;;;;32.76;31.75;99349.98;2055718;86;31725;-63
2021/08/16 11:33:25;;;;;;;4.17;3.10;;;;;;;32.77;32.03;99344.70;2055669;86;34153;-64
2021/08/16 11:36:34;;;;;;;5.97;3.67;;;;;;;32.77;31.82;99345.27;2064411;85;29330;-64
2021/08/16 11:39:35;;;;;;;8.83;3.85;;;;;;;32.74;32.27;99343.84;2072142;85;27602;-64
2021/08/16 11:42:39;;;;;;;6.10;3.87;;;;;;;32.75;31.69;99341.89;2071555;84;29617;-64
2021/08/16 11:45:55;;;;;;;6.70;3.47;;;;;;;32.79;32.29;99333.38;2067572;85;31848;-63
2021/08/16 11:49:14;;;;;;;4.87;3.50;;;;;;;32.96;32.15;99329.29;2055685;86;33737;-64
2021/08/16 11:52:24;;;;;;;5.33;3.70;;;;;;;33.06;32.40;99321.70;2052846;86;27736;-63
2021/08/16 11:55:32;;;;;;;4.55;3.52;;;;;;;33.03;31.95;99318.89;2058718;85;27676;-64
2021/08/16 11:58:40;;;;;;;4.12;3.30;;;;;;;32.92;31.80;99322.58;2071896;84;28845;-65
2021/08/16 12:01:48;;;;;;;8.70;3.80;;;;;;;32.87;31.99;99314.97;2071397;85;31688;-64
2021/08/16 12:04:53;;;;;;;8.80;4.30;;;;;;;32.94;32.10;99307.87;2072035;85;33001;-63
2021/08/16 12:07:55;;;;;;;7.60;3.58;;;;;;;32.97;32.03;99305.47;2067965;85;29407;-64
2021/08/16 12:10:57;;;;;;;8.75;4.75;;;;;;;32.96;32.14;99303.79;2071479;85;27664;-64
2021/08/16 12:14:01;;;;;;;8.00;4.40;;;;;;;33.05;32.48;99295.05;2071525;84;30061;-64
2021/08/16 12:17:07;;;;;;;;;;;;;;;33.08;32.33;99287.61;2072295;84;31076;-64
2021/08/16 12:20:12;;;;;;;6.10;4.45;;;;;;;33.09;32.19;99281.83;2066595;85;32764;-64
2021/08/16 12:23:30;;;;;;;7.62;4.33;;;;;;;33.04;32.42;99281.73;2092764;85;30124;-64
2021/08/16 12:26:37;;;;;;;6.05;4.37;;;;;;;33.13;32.70;99269.11;2090869;85;27730;-64
2021/08/16 12:29:47;;;;;;;5.25;3.62;;;;;;;33.27;32.39;99266.00;2096145;84;29487;-64
2021/08/16 12:32:50;;;;;;;5.45;3.98;;;;;;;33.28;32.57;99260.75;2096153;84;31943;-64
2021/08/16 12:36:02;;;;;;;7.97;4.10;;;;;;;33.35;32.73;99255.88;2096057;84;34259;-65
2021/08/16 12:39:13;;;;;;;7.45;4.85;;;;;;;33.43;32.83;99255.47;2093651;84;29930;-65
2021/08/16 12:42:16;;;;;;;6.80;4.28;;;;;;;33.42;32.36;99248.27;2092306;85;27717;-64
2021/08/16 12:45:18;;;;;;;8.68;5.08;;;;;;;33.43;32.52;99261.59;2092166;85;29503;-65
2021/08/16 12:48:20;;;;;;;8.58;5.05;;;;;;;33.37;32.33;99280.64;2093685;84;31384;-64
2021/08/16 12:51:24;;;;;;;8.75;4.78;;;;;;;33.26;32.45;99287.38;2096085;84;33170;-64
2021/08/16 12:54:26;;;;;;;12.50;5.70;;;;;;;33.13;32.62;99292.70;2096704;83;29315;-64
2021/08/16 12:57:28;;;;;;;9.35;5.00;;;;;;;32.96;32.47;99292.69;2095850;83;27661;-64
2021/08/16 13:00:30;;;;;;;8.00;5.70;;;;;;;32.67;32.56;99306.55;2091927;85;29924;-64
2021/08/16 13:03:32;;;;;;;15.38;5.92;;;;;;;32.34;32.69;99324.72;2091864;85;32247;-64
2021/08/16 13:06:34;;;;;;;24.72;4.17;;;;;;;32.10;34.73;99407.84;2091853;85;33672;-64
2021/08/16 13:09:36;;;;;;;14.38;3.58;;;;;;;31.64;35.86;99442.11;2092325;84;30440;-64
2021/08/16 13:12:38;;;;;;;5.70;2.92;;;;;;;30.96;37.01;99433.57;2092098;85;27794;-63
2021/08/16 13:15:40;;;;;;;9.23;3.30;;;;;;;30.29;38.27;99422.67;2091840;85;30051;-62
2021/08/16 13:18:42;;;;;;;7.53;3.72;;;;;;;29.62;39.57;99407.51;2094059;84;32409;-62
2021/08/16 13:21:44;;;;;;;8.68;3.40;;;;;;;29.12;40.34;99397.20;2104731;84;34115;-63
2021/08/16 13:24:46;;;;;;;9.85;3.85;;;;;;;28.77;41.07;99370.01;2108628;83;30316;-63
2021/08/16 13:27:48;;;;;;;8.68;3.98;;;;;;;28.49;42.09;99353.20;2107813;84;28177;-62
2021/08/16 13:30:50;;;;;;;10.08;3.90;;;;;;;28.31;42.39;99351.16;2104142;84;29514;-62
2021/08/16 13:33:58;;;;;;;6.72;3.75;;;;;;;28.08;42.92;99362.08;2104357;84;30453;-63
2021/08/16 13:37:00;;;;;;;8.78;4.00;;;;;;;27.91;43.76;99363.06;2104089;84;33829;-62
2021/08/16 13:40:03;;;;;;;15.72;4.12;;;;;;;27.68;43.96;99367.09;2070718;84;29491;-62
2021/08/16 13:43:08;;;;;;;8.90;4.75;;;;;;;27.49;44.50;99343.16;2108868;83;27788;-63
2021/08/16 13:46:10;;;;;;;5.50;3.80;;;;;;;27.45;45.21;99350.96;2108843;84;29959;-62
2021/08/16 13:49:13;;;;;;;6.17;3.40;;;;;;;27.28;45.27;99353.28;2135434;82;32246;-63
2021/08/16 13:52:22;;;;;;;8.15;4.05;;;;;;;27.16;45.81;99369.55;2151527;82;33018;-63
2021/08/16 13:55:25;;;;;;;6.08;3.70;;;;;;;27.11;46.10;99374.30;2151753;82;29444;-63
2021/08/16 13:58:27;;;;;;;6.90;3.72;;;;;;;27.18;46.42;99374.31;2133545;82;27726;-63
2021/08/16 14:01:30;;;;;;;5.47;3.87;;;;;;;27.24;46.64;99358.88;2108501;84;29218;-64
2021/08/16 14:04:33;;;;;;;7.65;4.80;;;;;;;27.30;46.55;99356.13;2108322;83;32027;-64
2021/08/16 14:07:34;;;;;;;5.97;3.85;;;;;;;27.26;46.50;99362.27;2113416;82;33437;-63
2021/08/16 14:10:36;;;;;;;10.98;4.47;;;;;;;27.14;46.88;99374.40;2151296;82;30489;-64
2021/08/16 14:13:39;;;;;;;7.75;4.78;;;;;;;26.98;47.03;99389.36;2151788;82;28107;-63
2021/08/16 14:16:43;;;;;;;7.22;5.00;;;;;;;26.74;47.25;99383.33;2151362;82;29521;-64